Time;durP1;ratioP1;P1;durP2;ratioP2;P2;SDS_P1;SDS_P2;PMS_P1;PMS_P2;Temp;Humidity;BMP_temperature;BMP_pressure;BME280_temperature;BME280_humidity;BME280_pressure;Samples;Min_cycle;Max_cycle;Signal;HPM_P1;HPM_P2
2021/11/24 00:02:01;;;;;;;53.53;27.40;;;;;;;3.27;81.26;99445.75;5092509;28;20411;-68
2021/11/24 00:04:27;;;;;;;60.28;29.42;;;;;;;3.24;81.38;99446.22;5087841;28;20091;-68
2021/11/24 00:06:52;;;;;;;63.28;30.05;;;;;;;3.22;80.55;99443.72;5089770;28;20537;-68
2021/11/24 00:09:17;;;;;;;59.55;29.27;;;;;;;3.19;81.45;99444.16;5091920;28;20520;-69
2021/11/24 00:11:43;;;;;;;56.08;26.83;;;;;;;3.20;80.65;99445.81;5090863;28;20028;-68
2021/11/24 00:14:08;;;;;;;54.25;25.80;;;;;;;3.14;81.11;99452.13;5091875;28;20468;-68
2021/11/24 00:16:34;;;;;;;53.13;25.88;;;;;;;3.12;81.60;99449.66;5091092;28;20012;-68
2021/11/24 00:18:59;;;;;;;61.42;29.65;;;;;;;3.11;81.42;99442.56;5091721;28;20016;-68
2021/11/24 00:21:25;;;;;;;64.60;33.95;;;;;;;3.09;81.19;99447.41;5091535;28;20120;-68
2021/11/24 00:23:50;;;;;;;61.85;30.15;;;;;;;3.08;81.05;99439.47;5091572;28;20414;-68
2021/11/24 00:26:16;;;;;;;63.90;30.33;;;;;;;3.06;80.35;99441.56;5091641;28;20038;-68
2021/11/24 00:28:41;;;;;;;58.92;28.45;;;;;;;3.03;80.91;99433.91;5072969;28;20112;-68
2021/11/24 00:31:07;;;;;;;60.88;28.20;;;;;;;3.01;81.23;99436.84;5091485;28;20093;-68
2021/11/24 00:33:33;;;;;;;53.72;27.40;;;;;;;3.00;81.02;99451.44;5091494;28;20100;-68
2021/11/24 00:36:00;;;;;;;54.55;26.25;;;;;;;3.01;81.07;99444.97;5072401;28;20149;-68
2021/11/24 00:38:25;;;;;;;48.80;24.98;;;;;;;3.04;81.14;99446.41;5089218;28;20031;-68
2021/11/24 00:40:51;;;;;;;52.97;26.00;;;;;;;3.03;81.26;99445.56;5087462;28;20032;-68
2021/11/24 00:43:16;;;;;;;52.45;27.05;;;;;;;3.02;80.98;99443.09;5089945;28;20044;-68
2021/11/24 00:45:42;;;;;;;48.83;23.42;;;;;;;3.02;80.99;99440.38;5089876;28;20031;-68
2021/11/24 00:48:07;;;;;;;52.97;24.50;;;;;;;3.02;80.81;99443.91;5089052;28;20034;-68
2021/11/24 00:50:33;;;;;;;52.00;24.55;;;;;;;3.02;80.35;99440.38;5089788;28;20054;-68
2021/11/24 00:52:58;;;;;;;47.58;22.80;;;;;;;3.03;81.49;99452.88;5089666;28;20094;-68
2021/11/24 00:55:24;;;;;;;54.80;28.67;;;;;;;3.01;80.46;99450.38;5089702;28;20111;-68
2021/11/24 00:57:49;;;;;;;48.95;26.38;;;;;;;2.98;80.16;99442.69;5089550;28;20026;-68
2021/11/24 01:00:16;;;;;;;46.70;23.73;;;;;;;2.97;80.46;99446.44;5089671;28;20019;-68
2021/11/24 01:02:43;;;;;;;45.40;23.92;;;;;;;2.95;80.68;99443.97;5090071;28;20035;-68
2021/11/24 01:05:09;;;;;;;49.13;24.70;;;;;;;2.95;81.39;99435.00;5089952;28;20519;-69
2021/11/24 01:07:35;;;;;;;41.97;22.90;;;;;;;2.94;80.86;99439.59;5071417;28;20016;-68
2021/11/24 01:10:00;;;;;;;44.58;24.90;;;;;;;2.93;80.44;99429.81;5089947;28;20114;-68
2021/11/24 01:12:26;;;;;;;68.57;31.92;;;;;;;2.92;80.72;99428.16;5089249;28;20043;-68
2021/11/24 01:14:51;;;;;;;58.67;27.33;;;;;;;2.92;80.56;99435.44;5089899;28;20380;-68
2021/11/24 01:17:17;;;;;;;50.03;26.23;;;;;;;2.93;80.73;99428.97;5089579;28;20035;-68
2021/11/24 01:19:43;;;;;;;52.55;25.40;;;;;;;2.93;81.15;99427.09;5071815;28;20019;-68
2021/11/24 01:22:09;;;;;;;44.17;23.58;;;;;;;2.93;80.88;99427.09;5089902;28;20023;-68
2021/11/24 01:24:34;;;;;;;46.03;24.40;;;;;;;2.91;81.05;99423.78;5071160;28;20020;-68
2021/11/24 01:26:59;;;;;;;42.05;20.33;;;;;;;2.94;81.09;99426.06;5089977;28;20016;-68
2021/11/24 01:29:25;;;;;;;40.63;21.60;;;;;;;2.93;80.97;99418.13;5089980;28;20031;-69
2021/11/24 01:31:51;;;;;;;42.42;22.00;;;;;;;2.93;80.63;99429.81;5089750;28;20044;-68
2021/11/24 01:34:16;;;;;;;42.47;24.00;;;;;;;2.93;80.79;99421.69;5071883;28;20062;-69
2021/11/24 01:36:42;;;;;;;45.63;24.73;;;;;;;2.98;80.18;99423.72;5089435;28;20016;-68
2021/11/24 01:39:07;;;;;;;43.97;22.58;;;;;;;3.01;81.01;99419.75;5089285;28;20024;-68
2021/11/24 01:41:33;;;;;;;40.08;21.27;;;;;;;3.05;80.47;99416.38;5089366;28;20520;-68
2021/11/24 01:43:58;;;;;;;47.45;23.77;;;;;;;3.05;80.63;99423.69;5071412;28;20372;-69
2021/11/24 01:46:28;;;;;;;57.33;27.85;;;;;;;3.03;81.05;99420.38;5089316;28;20122;-68
2021/11/24 01:48:54;;;;;;;46.33;23.08;;;;;;;2.99;80.16;99417.25;5070635;28;20031;-68
2021/11/24 01:51:20;;;;;;;48.92;24.88;;;;;;;2.94;80.05;99422.50;5089305;28;20008;-69
2021/11/24 01:53:47;;;;;;;48.53;23.73;;;;;;;2.91;80.23;99425.66;5089302;28;20032;-68
2021/11/24 01:56:12;;;;;;;44.83;24.40;;;;;;;2.88;80.72;99423.38;5068422;28;20438;-68
2021/11/24 01:58:39;;;;;;;44.17;24.40;;;;;;;2.85;80.90;99415.72;5089122;28;20020;-68
2021/11/24 02:01:05;;;;;;;40.88;22.60;;;;;;;2.80;80.46;99419.09;5089732;28;20051;-68
2021/11/24 02:03:31;;;;;;;41.72;22.70;;;;;;;2.77;80.55;99420.38;5089530;28;20020;-68
2021/11/24 02:05:58;;;;;;;51.08;24.80;;;;;;;2.73;80.31;99415.59;5089300;28;20388;-68
2021/11/24 02:08:23;;;;;;;43.58;21.95;;;;;;;2.68;80.36;99411.66;5089200;28;20074;-69
2021/11/24 02:10:49;;;;;;;44.67;23.23;;;;;;;2.66;80.92;99415.66;5089307;28;20032;-68
2021/11/24 02:13:14;;;;;;;45.33;23.92;;;;;;;2.62;80.24;99418.00;5089688;28;20456;-68
2021/11/24 02:15:40;;;;;;;45.92;25.55;;;;;;;2.59;80.87;99410.31;5089228;28;20030;-68
2021/11/24 02:18:07;;;;;;;42.40;23.10;;;;;;;2.56;81.00;99408.03;5088916;28;20023;-69
2021/11/24 02:20:43;;;;;;;45.67;24.15;;;;;;;2.54;80.22;99404.72;5071070;28;20027;-68
2021/11/24 02:23:11;;;;;;;41.53;23.35;;;;;;;2.54;80.29;99404.72;5089127;28;20426;-68
2021/11/24 02:25:38;;;;;;;43.55;23.25;;;;;;;2.53;80.95;99406.59;5070824;28;20073;-68
2021/11/24 02:28:04;;;;;;;39.20;22.65;;;;;;;2.54;80.71;99410.13;5088705;28;20430;-68
2021/11/24 02:30:30;;;;;;;43.15;23.83;;;;;;;2.53;80.40;99405.75;5088888;28;20488;-68
2021/11/24 02:32:55;;;;;;;44.08;23.67;;;;;;;2.51;80.74;99405.16;5089098;28;20020;-68
2021/11/24 02:35:21;;;;;;;39.17;21.83;;;;;;;2.48;80.45;99403.69;5072730;28;20020;-68
2021/11/24 02:37:46;;;;;;;39.35;21.65;;;;;;;2.49;80.74;99401.84;5092168;28;20024;-68
2021/11/24 02:40:12;;;;;;;39.95;22.88;;;;;;;2.49;80.65;99408.06;5092450;28;20024;-68
2021/11/24 02:42:39;;;;;;;36.58;21.38;;;;;;;2.47;80.99;99395.81;5074104;28;20379;-68
2021/11/24 02:45:06;;;;;;;40.47;23.02;;;;;;;2.48;80.58;99402.88;5092812;28;20032;-68
2021/11/24 02:47:31;;;;;;;40.80;23.08;;;;;;;2.47;80.84;99398.53;5091898;28;20089;-68
2021/11/24 02:50:00;;;;;;;42.53;23.02;;;;;;;2.45;80.96;99401.44;5092778;28;20411;-68
2021/11/24 02:52:25;;;;;;;40.17;22.00;;;;;;;2.43;80.89;99395.44;5091525;28;20047;-68
2021/11/24 02:54:57;;;;;;;65.18;30.70;;;;;;;2.43;80.73;99398.16;5092235;28;20032;-68
2021/11/24 02:57:35;;;;;;;47.88;22.73;;;;;;;2.45;81.24;99397.91;5092175;28;20078;-68
2021/11/24 03:00:04;;;;;;;42.30;22.30;;;;;;;2.43;80.70;99403.56;5073198;28;20024;-68
2021/11/24 03:02:29;;;;;;;38.50;20.45;;;;;;;2.43;81.23;99408.13;5092575;28;20016;-68
2021/11/24 03:04:55;;;;;;;37.13;20.30;;;;;;;2.40;81.05;99404.00;5074317;28;20024;-69
2021/11/24 03:07:20;;;;;;;38.25;21.67;;;;;;;2.36;80.45;99398.16;5092056;28;20092;-68
2021/11/24 03:09:46;;;;;;;41.72;23.85;;;;;;;2.34;80.94;99392.16;5092618;28;20099;-68
2021/11/24 03:12:12;;;;;;;47.80;26.23;;;;;;;2.35;80.36;99401.94;5092929;28;20103;-68
2021/11/24 03:14:38;;;;;;;45.72;25.08;;;;;;;2.34;81.62;99391.34;5092291;28;20027;-70
2021/11/24 03:17:03;;;;;;;40.03;23.85;;;;;;;2.30;81.20;99393.63;5092511;28;20047;-72
2021/11/24 03:19:29;;;;;;;50.30;26.17;;;;;;;2.29;81.60;99386.56;5092235;28;20042;-72
2021/11/24 03:21:54;;;;;;;38.22;22.98;;;;;;;2.28;81.04;99392.19;5092169;28;20024;-70
2021/11/24 03:24:20;;;;;;;36.53;21.13;;;;;;;2.24;81.30;99391.81;5092073;28;20499;-68
2021/11/24 03:26:45;;;;;;;38.38;20.85;;;;;;;2.19;81.29;99380.81;5091795;28;20024;-69
2021/11/24 03:29:11;;;;;;;37.40;21.30;;;;;;;2.14;80.50;99386.88;5074145;28;20545;-69
2021/11/24 03:31:36;;;;;;;30.10;19.02;;;;;;;2.12;80.67;99388.13;5092155;28;20396;-68
2021/11/24 03:34:02;;;;;;;30.55;18.95;;;;;;;2.08;80.77;99383.16;5092260;28;20059;-69
2021/11/24 03:36:27;;;;;;;38.45;21.27;;;;;;;2.04;80.63;99387.34;5092055;28;20122;-68
2021/11/24 03:38:53;;;;;;;36.28;20.75;;;;;;;2.03;81.38;99387.59;5073159;28;20035;-68
2021/11/24 03:41:18;;;;;;;34.67;20.55;;;;;;;2.01;80.94;99384.25;5092027;28;20028;-68
2021/11/24 03:43:44;;;;;;;38.08;21.00;;;;;;;2.01;81.16;99382.38;5092106;28;20032;-68
2021/11/24 03:46:09;;;;;;;34.42;20.38;;;;;;;2.01;80.98;99378.84;5073289;28;20020;-68
2021/11/24 03:48:35;;;;;;;36.70;21.23;;;;;;;2.03;80.86;99384.88;5090328;28;20096;-69
2021/11/24 03:51:00;;;;;;;43.50;23.98;;;;;;;2.03;80.73;99371.34;5072003;28;20020;-69
2021/11/24 03:53:25;;;;;;;38.33;22.58;;;;;;;2.03;81.49;99365.94;5073272;28;20032;-69
2021/11/24 03:55:51;;;;;;;35.65;21.77;;;;;;;2.02;81.49;99370.50;5091427;28;20117;-69
2021/11/24 03:58:16;;;;;;;35.22;19.85;;;;;;;2.02;81.21;99365.09;5091178;28;20074;-68
2021/11/24 04:00:42;;;;;;;35.63;20.70;;;;;;;2.04;80.93;99362.16;5091485;28;20432;-68
2021/11/24 04:03:07;;;;;;;35.40;21.27;;;;;;;2.03;81.47;99361.34;5091718;28;20449;-68
2021/11/24 04:05:33;;;;;;;35.20;20.02;;;;;;;2.02;81.60;99365.09;5092043;28;20420;-68
2021/11/24 04:07:58;;;;;;;37.20;21.58;;;;;;;2.04;80.91;99360.28;5091195;28;20376;-68
2021/11/24 04:10:24;;;;;;;36.95;21.15;;;;;;;2.04;81.23;99359.44;5091746;28;20047;-68
2021/11/24 04:12:49;;;;;;;36.15;21.27;;;;;;;2.04;81.64;99360.28;5091567;28;20495;-69
2021/11/24 04:15:18;;;;;;;33.15;19.55;;;;;;;2.05;81.19;99359.25;5073556;28;20036;-68
2021/11/24 04:17:45;;;;;;;35.70;21.10;;;;;;;2.04;81.09;99359.44;5091117;28;20081;-69
2021/11/24 04:20:14;;;;;;;37.38;21.95;;;;;;;2.01;81.24;99355.31;5091582;28;20111;-68
2021/11/24 04:22:40;;;;;;;33.60;19.23;;;;;;;2.01;81.40;99360.72;5091444;28;20078;-68
2021/11/24 04:25:05;;;;;;;39.63;20.90;;;;;;;1.99;81.29;99368.22;5091407;28;20032;-68
2021/11/24 04:27:31;;;;;;;34.33;20.15;;;;;;;1.97;81.41;99369.50;5090859;28;20058;-68
2021/11/24 04:29:57;;;;;;;38.72;21.67;;;;;;;1.96;81.48;99365.94;5091317;28;20032;-68
2021/11/24 04:32:24;;;;;;;34.58;19.83;;;;;;;1.96;81.57;99365.13;5091425;28;20053;-69
2021/11/24 04:34:49;;;;;;;34.08;20.00;;;;;;;1.94;80.89;99365.34;5091295;28;20031;-68
2021/11/24 04:37:15;;;;;;;35.20;21.13;;;;;;;1.93;81.48;99364.53;5090829;28;20392;-68
2021/11/24 04:39:40;;;;;;;36.95;21.08;;;;;;;1.93;81.30;99366.38;5090827;28;20084;-69
2021/11/24 04:42:06;;;;;;;36.13;21.08;;;;;;;1.94;81.26;99362.63;5090932;28;20032;-68
2021/11/24 04:44:31;;;;;;;39.45;21.60;;;;;;;1.91;80.80;99357.66;5072917;28;20103;-69
2021/11/24 04:46:57;;;;;;;34.35;19.40;;;;;;;1.91;81.67;99354.94;5090485;28;20036;-68
2021/11/24 04:49:22;;;;;;;36.90;20.60;;;;;;;1.92;81.24;99362.03;5090769;28;20028;-69
2021/11/24 04:51:48;;;;;;;38.08;20.38;;;;;;;1.93;81.62;99355.56;5090851;28;20024;-68
2021/11/24 04:54:14;;;;;;;37.38;21.83;;;;;;;1.95;81.41;99356.19;5091126;28;20124;-68
2021/11/24 04:56:40;;;;;;;43.60;23.55;;;;;;;1.98;80.97;99363.84;5090292;28;20020;-68
2021/11/24 04:59:05;;;;;;;39.30;23.70;;;;;;;2.00;80.92;99355.53;5090034;28;20491;-70
2021/11/24 05:01:31;;;;;;;41.35;22.10;;;;;;;2.01;81.10;99354.50;5090744;28;20088;-69
2021/11/24 05:03:56;;;;;;;54.40;29.00;;;;;;;2.03;81.62;99352.41;5090605;28;20024;-68
2021/11/24 05:06:23;;;;;;;48.22;25.92;;;;;;;2.04;81.73;99351.31;5072577;28;20028;-69
2021/11/24 05:08:48;;;;;;;42.60;22.67;;;;;;;2.05;80.90;99351.13;5090071;28;20032;-69
2021/11/24 05:11:18;;;;;;;57.75;27.27;;;;;;;2.05;81.46;99343.00;5090573;28;20082;-69
2021/11/24 05:14:09;;;;;;;97.15;36.47;;;;;;;2.06;81.54;99352.78;5091521;28;20388;-69
2021/11/24 05:16:33;;;;;;;54.17;25.90;;;;;;;2.07;81.03;99340.06;5091218;28;20031;-69
2021/11/24 05:18:58;;;;;;;48.90;25.45;;;;;;;2.07;81.29;99346.31;5090559;28;20021;-69
2021/11/24 05:21:35;;;;;;;51.05;26.27;;;;;;;2.07;80.65;99346.31;5072871;28;20110;-69
2021/11/24 05:24:03;;;;;;;47.78;25.50;;;;;;;2.07;81.13;99345.47;5090810;28;20032;-68
2021/11/24 05:26:29;;;;;;;45.78;26.35;;;;;;;2.05;80.82;99348.41;5091109;28;20020;-69
2021/11/24 05:28:56;;;;;;;49.55;26.42;;;;;;;2.04;81.43;99346.75;5090732;28;20042;-69
2021/11/24 05:31:22;;;;;;;52.53;29.38;;;;;;;2.03;80.84;99344.28;5090872;28;20101;-66
2021/11/24 05:33:49;;;;;;;49.83;25.08;;;;;;;2.02;80.65;99340.72;5091633;28;20027;-66
2021/11/24 05:36:15;;;;;;;48.15;25.63;;;;;;;2.02;81.49;99338.03;5091217;28;20052;-66
2021/11/24 05:38:41;;;;;;;52.10;28.40;;;;;;;2.06;80.89;99343.81;5090387;28;20415;-67
2021/11/24 05:41:07;;;;;;;45.47;25.70;;;;;;;2.07;81.08;99343.63;5091112;28;20028;-66
2021/11/24 05:43:32;;;;;;;50.03;25.13;;;;;;;2.06;80.62;99346.53;5072827;28;20049;-66
2021/11/24 05:48:24;;;;;;;43.25;24.02;;;;;;;1.95;80.52;99348.06;5090749;28;20447;-66
2021/11/24 05:50:51;;;;;;;44.72;24.13;;;;;;;1.90;80.83;99354.13;5090414;28;20392;-69
2021/11/24 05:53:19;;;;;;;45.35;25.83;;;;;;;1.86;81.10;99354.78;5087774;28;20836;-69
2021/11/24 05:55:46;;;;;;;46.92;26.05;;;;;;;1.80;81.04;99356.47;5090622;28;20031;-69
2021/11/24 05:58:12;;;;;;;74.95;34.00;;;;;;;1.79;81.06;99344.00;5083513;28;20032;-69
2021/11/24 06:00:39;;;;;;;89.82;41.17;;;;;;;1.75;81.12;99343.63;5089426;28;20028;-69
2021/11/24 06:03:04;;;;;;;79.90;37.60;;;;;;;1.76;80.73;99336.31;5090108;28;20024;-69
2021/11/24 06:05:30;;;;;;;90.93;42.35;;;;;;;1.74;81.28;99344.66;5090125;28;20483;-68
2021/11/24 06:07:56;;;;;;;139.10;51.65;;;;;;;1.74;80.66;99341.09;5071788;28;20032;-69
2021/11/24 06:10:22;;;;;;;147.88;53.90;;;;;;;1.74;81.29;99333.84;5093752;28;20050;-69
2021/11/24 06:12:47;;;;;;;144.07;50.95;;;;;;;1.75;81.27;99337.34;5094161;28;20131;-69
2021/11/24 06:15:15;;;;;;;92.47;39.03;;;;;;;1.76;80.94;99341.72;5094576;28;20388;-69
2021/11/24 06:17:42;;;;;;;78.10;33.95;;;;;;;1.78;81.38;99342.34;5093986;28;20035;-69
2021/11/24 06:20:09;;;;;;;74.85;33.53;;;;;;;1.78;80.63;99337.78;5094218;28;20120;-68
2021/11/24 06:22:34;;;;;;;111.70;40.80;;;;;;;1.82;80.90;99337.34;5094158;28;20567;-69
2021/11/24 06:25:00;;;;;;;91.10;40.70;;;;;;;1.83;81.20;99333.59;5075894;28;20111;-69
2021/11/24 06:27:25;;;;;;;75.25;38.78;;;;;;;1.85;80.84;99332.31;5093000;28;20492;-69
2021/11/24 06:29:51;;;;;;;63.72;30.63;;;;;;;1.86;80.75;99342.09;5093775;28;20073;-69
2021/11/24 06:32:16;;;;;;;67.93;33.33;;;;;;;1.88;81.09;99336.44;5094399;28;20104;-68
2021/11/24 06:34:42;;;;;;;65.57;31.70;;;;;;;1.89;80.94;99338.94;5093791;28;20500;-69
2021/11/24 06:37:07;;;;;;;69.28;32.58;;;;;;;1.89;81.06;99340.81;5093631;28;20449;-68
2021/11/24 06:39:33;;;;;;;63.58;33.80;;;;;;;1.91;81.09;99342.25;5094204;28;20028;-68
2021/11/24 06:41:59;;;;;;;66.60;34.55;;;;;;;1.93;80.73;99339.34;5093771;28;20028;-68
2021/11/24 06:44:25;;;;;;;75.45;37.58;;;;;;;1.93;80.59;99340.19;5093924;28;20099;-68
2021/11/24 06:46:51;;;;;;;63.75;33.13;;;;;;;1.95;81.41;99348.06;5093335;28;20086;-68
2021/11/24 06:49:16;;;;;;;52.35;27.73;;;;;;;2.00;80.62;99355.53;5093812;28;20451;-68
2021/11/24 06:51:42;;;;;;;56.70;29.33;;;;;;;2.02;81.18;99351.56;5093317;28;20035;-68
2021/11/24 06:54:08;;;;;;;67.13;31.20;;;;;;;2.06;80.87;99362.75;5093525;28;20102;-68
2021/11/24 06:56:33;;;;;;;62.03;30.67;;;;;;;2.08;80.96;99357.97;5093210;28;20438;-68
2021/11/24 06:58:58;;;;;;;68.50;34.65;;;;;;;2.12;80.72;99361.09;5093023;28;20537;-68
2021/11/24 07:01:24;;;;;;;57.20;28.88;;;;;;;2.13;81.19;99365.44;5093418;28;20119;-68
2021/11/24 07:03:49;;;;;;;49.88;26.23;;;;;;;2.17;81.08;99358.56;5075364;28;20476;-68
2021/11/24 07:06:15;;;;;;;53.63;28.02;;;;;;;2.21;80.81;99370.59;5093959;28;20016;-68
2021/11/24 07:08:42;;;;;;;51.47;25.58;;;;;;;2.28;81.38;99365.13;5093057;28;20089;-68
2021/11/24 07:11:07;;;;;;;53.92;28.88;;;;;;;2.33;80.94;99368.00;5092788;28;20504;-69
2021/11/24 07:13:33;;;;;;;52.20;28.38;;;;;;;2.36;81.13;99364.88;5075544;28;20024;-68
2021/11/24 07:15:58;;;;;;;48.85;25.73;;;;;;;2.40;80.44;99370.66;5093460;28;20024;-69
2021/11/24 07:18:24;;;;;;;56.38;29.80;;;;;;;2.44;80.89;99366.47;5093301;28;20024;-69
2021/11/24 07:20:49;;;;;;;54.22;26.95;;;;;;;2.51;80.65;99364.53;5092262;28;20531;-68
2021/11/24 07:23:14;;;;;;;54.15;28.48;;;;;;;2.59;80.82;99372.41;5093404;28;20028;-68
2021/11/24 07:25:40;;;;;;;46.70;23.88;;;;;;;2.64;80.29;99371.72;5092738;28;20039;-68
2021/11/24 07:28:06;;;;;;;49.40;25.33;;;;;;;2.65;80.10;99368.78;5092698;28;20472;-68
2021/11/24 07:30:31;;;;;;;47.58;25.08;;;;;;;2.67;80.69;99361.25;5093014;28;20137;-68
2021/11/24 07:32:57;;;;;;;55.92;28.05;;;;;;;2.68;80.02;99357.50;5093135;28;20039;-68
2021/11/24 07:35:22;;;;;;;49.60;23.90;;;;;;;2.72;80.78;99363.31;5074961;28;20599;-68
2021/11/24 07:37:48;;;;;;;51.80;25.83;;;;;;;2.75;80.40;99362.03;5092889;28;20130;-68
2021/11/24 07:40:14;;;;;;;53.45;27.73;;;;;;;2.77;80.29;99357.22;5092770;28;20537;-68
2021/11/24 07:42:40;;;;;;;48.28;25.42;;;;;;;2.79;80.44;99363.25;5092352;28;20477;-68
2021/11/24 07:45:07;;;;;;;56.85;29.20;;;;;;;2.81;80.09;99361.13;5091759;28;20488;-68
2021/11/24 07:47:33;;;;;;;50.95;26.80;;;;;;;2.84;80.19;99349.88;5091157;28;20040;-68
2021/11/24 07:49:59;;;;;;;65.68;31.83;;;;;;;2.88;80.15;99358.34;5089010;28;20050;-68
2021/11/24 07:52:24;;;;;;;57.45;32.78;;;;;;;2.94;80.71;99352.91;5092176;28;20032;-68
2021/11/24 07:54:50;;;;;;;53.67;30.95;;;;;;;3.00;80.49;99353.06;5088249;28;20579;-67
2021/11/24 07:57:18;;;;;;;57.22;29.55;;;;;;;3.08;80.34;99355.44;5085101;28;20452;-68
2021/11/24 07:59:43;;;;;;;52.08;26.70;;;;;;;3.10;80.23;99348.75;5091406;28;20062;-69
2021/11/24 08:02:09;;;;;;;57.47;27.58;;;;;;;3.13;80.11;99352.91;5091124;28;20036;-69
2021/11/24 08:04:35;;;;;;;53.47;28.08;;;;;;;3.16;80.17;99347.03;5072849;28;20093;-67
2021/11/24 08:07:03;;;;;;;56.25;29.30;;;;;;;3.19;80.15;99343.88;5090396;28;20028;-68
2021/11/24 08:09:29;;;;;;;52.20;26.70;;;;;;;3.22;79.85;99337.19;5072026;28;20020;-68
2021/11/24 08:11:56;;;;;;;59.80;32.60;;;;;;;3.27;79.68;99340.00;5090581;28;20024;-68
2021/11/24 08:14:22;;;;;;;52.35;31.08;;;;;;;3.33;80.12;99341.00;5090378;28;20143;-67
2021/11/24 08:16:47;;;;;;;62.95;32.50;;;;;;;3.38;79.92;99339.25;5089188;28;20144;-67
2021/11/24 08:19:15;;;;;;;60.05;32.58;;;;;;;3.46;80.14;99348.16;5072914;28;20024;-67
2021/11/24 08:21:40;;;;;;;69.80;36.28;;;;;;;3.52;80.51;99344.53;5092935;28;20131;-69
2021/11/24 08:24:06;;;;;;;67.35;34.33;;;;;;;3.55;79.98;99338.66;5090933;28;20107;-68
2021/11/24 08:26:31;;;;;;;62.40;34.95;;;;;;;3.57;79.31;99345.50;5089774;28;20015;-68
2021/11/24 08:28:57;;;;;;;59.00;32.80;;;;;;;3.60;79.86;99349.66;5090322;28;20657;-68
2021/11/24 08:31:22;;;;;;;66.85;38.05;;;;;;;3.62;79.31;99341.28;5090936;28;20124;-67
2021/11/24 08:33:48;;;;;;;71.95;41.22;;;;;;;3.64;79.10;99344.59;5088484;28;20028;-67
2021/11/24 08:36:15;;;;;;;66.90;37.53;;;;;;;3.69;79.47;99344.72;5090151;28;20445;-68
2021/11/24 08:38:42;;;;;;;75.60;39.78;;;;;;;3.71;79.07;99345.31;5089614;28;20023;-68
2021/11/24 08:41:11;;;;;;;59.17;32.00;;;;;;;3.77;79.81;99347.13;5089996;28;20472;-68
2021/11/24 08:43:38;;;;;;;64.65;35.30;;;;;;;3.82;79.27;99346.44;5071992;28;20772;-68
2021/11/24 08:46:04;;;;;;;62.72;33.60;;;;;;;3.85;78.93;99348.69;5072194;28;20111;-67
2021/11/24 08:48:30;;;;;;;62.50;32.95;;;;;;;3.88;79.10;99349.03;5089554;28;20115;-66
2021/11/24 08:50:55;;;;;;;56.67;32.75;;;;;;;3.91;78.92;99353.19;5089303;28;20032;-69
2021/11/24 08:53:22;;;;;;;63.20;30.13;;;;;;;3.99;79.58;99346.59;5090720;28;20471;-69
2021/11/24 08:55:48;;;;;;;64.13;30.25;;;;;;;4.07;79.03;99351.72;5090501;28;20035;-68
2021/11/24 08:58:14;;;;;;;60.03;29.23;;;;;;;4.08;78.26;99350.66;5090399;28;20024;-67
2021/11/24 09:00:39;;;;;;;47.25;24.52;;;;;;;4.11;79.04;99350.19;5089313;28;20502;-67
2021/11/24 09:03:05;;;;;;;45.05;23.23;;;;;;;4.12;78.44;99360.00;5065633;28;20380;-68
2021/11/24 09:05:32;;;;;;;36.08;20.23;;;;;;;4.14;77.69;99347.00;5089099;28;20081;-66
2021/11/24 09:07:58;;;;;;;40.15;20.95;;;;;;;4.09;76.90;99349.59;5089630;28;20513;-66
2021/11/24 09:10:26;;;;;;;40.90;21.80;;;;;;;4.09;77.61;99349.59;5073492;28;20036;-66
2021/11/24 09:12:52;;;;;;;34.88;18.15;;;;;;;4.11;77.39;99342.03;5088482;28;20529;-66
2021/11/24 09:15:18;;;;;;;40.13;20.23;;;;;;;4.12;76.90;99348.28;5088757;28;20016;-66
2021/11/24 09:17:44;;;;;;;37.92;21.80;;;;;;;4.10;76.47;99351.25;5088742;28;20024;-66
2021/11/24 09:20:10;;;;;;;37.25;20.35;;;;;;;4.08;76.78;99341.66;5089030;28;20047;-67
2021/11/24 09:22:38;;;;;;;43.60;21.50;;;;;;;4.06;76.12;99344.63;5088707;28;20020;-66
2021/11/24 09:25:05;;;;;;;46.30;22.85;;;;;;;4.08;76.91;99349.81;5088185;28;20031;-67
2021/11/24 09:27:32;;;;;;;50.88;22.10;;;;;;;4.04;75.56;99341.31;5088384;28;20032;-66
2021/11/24 09:29:59;;;;;;;49.40;24.17;;;;;;;3.99;76.12;99333.88;5088251;28;20024;-67
2021/11/24 09:32:26;;;;;;;45.90;22.73;;;;;;;3.98;75.37;99328.66;5090333;28;20031;-66
2021/11/24 09:34:51;;;;;;;36.13;19.65;;;;;;;3.95;75.02;99335.41;5089049;28;20036;-66
2021/11/24 09:37:17;;;;;;;32.47;17.90;;;;;;;3.93;75.28;99332.09;5087997;28;20093;-65
2021/11/24 09:39:42;;;;;;;33.97;18.95;;;;;;;3.89;74.99;99328.16;5090096;28;20096;-65
2021/11/24 09:42:09;;;;;;;35.47;18.52;;;;;;;3.87;75.85;99330.28;5089093;28;20110;-65
2021/11/24 09:44:37;;;;;;;32.47;17.65;;;;;;;3.88;76.04;99329.22;5074813;28;20843;-66
2021/11/24 09:47:06;;;;;;;36.08;20.80;;;;;;;3.91;75.83;99330.63;5078127;28;20039;-66
2021/11/24 09:49:32;;;;;;;34.08;18.77;;;;;;;3.95;75.48;99331.84;5077694;28;20024;-65
2021/11/24 09:51:59;;;;;;;33.33;17.98;;;;;;;4.01;75.49;99333.63;5095876;28;20128;-65
2021/11/24 09:54:25;;;;;;;36.60;18.25;;;;;;;4.05;76.12;99325.88;5095297;28;20154;-65
2021/11/24 09:56:51;;;;;;;38.38;19.80;;;;;;;4.05;76.35;99323.97;5095383;28;20059;-66
2021/11/24 09:59:16;;;;;;;37.53;21.27;;;;;;;4.09;75.53;99327.88;5094886;28;20612;-65
2021/11/24 10:01:43;;;;;;;46.80;23.20;;;;;;;4.14;76.00;99314.44;5096176;28;20141;-67
2021/11/24 10:04:10;;;;;;;38.83;19.30;;;;;;;4.22;76.01;99312.44;5095124;28;20069;-67
2021/11/24 10:06:40;;;;;;;43.05;21.20;;;;;;;4.25;76.01;99312.78;5095090;28;20027;-66
2021/11/24 10:09:08;;;;;;;42.47;20.45;;;;;;;4.29;75.89;99311.28;5091251;28;20048;-66
2021/11/24 10:11:33;;;;;;;41.55;21.55;;;;;;;4.31;75.83;99308.31;5095176;28;20030;-65
2021/11/24 10:14:00;;;;;;;42.28;22.08;;;;;;;4.37;75.83;99306.56;5094824;28;20040;-66
2021/11/24 10:16:30;;;;;;;40.30;22.48;;;;;;;4.41;75.53;99305.84;5091442;28;20028;-66
2021/11/24 10:19:17;;;;;;;46.75;23.10;;;;;;;4.44;75.78;99299.13;5092939;28;20077;-66
2021/11/24 10:21:54;;;;;;;39.13;22.25;;;;;;;4.43;75.86;99305.63;5075329;28;20071;-65
2021/11/24 10:24:40;;;;;;;36.15;20.52;;;;;;;4.49;76.25;99303.84;5094141;28;20035;-66
2021/11/24 10:27:08;;;;;;;38.20;20.65;;;;;;;4.57;76.43;99296.16;5092307;28;20032;-67
2021/11/24 10:29:34;;;;;;;45.47;24.23;;;;;;;4.62;75.48;99292.75;5095261;28;20024;-68
2021/11/24 10:32:10;;;;;;;43.35;23.48;;;;;;;4.69;75.30;99298.88;5076103;28;20036;-67
2021/11/24 10:34:42;;;;;;;39.40;20.75;;;;;;;4.74;75.93;99295.47;5092202;28;20016;-68
2021/11/24 10:37:16;;;;;;;42.55;20.67;;;;;;;4.75;74.40;99288.97;5089664;28;20020;-67
2021/11/24 10:39:50;;;;;;;36.70;19.50;;;;;;;4.73;74.76;99281.03;5095289;28;20036;-66
2021/11/24 10:42:21;;;;;;;37.40;19.80;;;;;;;4.72;74.42;99289.44;5094373;28;20038;-67
2021/11/24 10:44:52;;;;;;;34.17;18.60;;;;;;;4.69;74.27;99281.75;5097747;28;20480;-67
2021/11/24 10:47:18;;;;;;;39.80;20.17;;;;;;;4.69;74.69;99279.84;5093327;28;20032;-68
2021/11/24 10:49:46;;;;;;;32.63;17.60;;;;;;;4.71;74.23;99268.75;5092952;28;20032;-68
2021/11/24 10:52:36;;;;;;;35.85;19.25;;;;;;;4.70;73.87;99270.63;5076180;28;20040;-68
2021/11/24 10:55:13;;;;;;;33.70;18.27;;;;;;;4.74;74.13;99268.28;5093291;28;20036;-68
2021/11/24 10:57:58;;;;;;;30.98;18.13;;;;;;;4.75;74.62;99259.06;5091133;28;20031;-68
2021/11/24 11:00:35;;;;;;;35.63;18.50;;;;;;;4.80;74.40;99263.78;5088354;28;20035;-66
2021/11/24 11:03:01;;;;;;;32.83;18.20;;;;;;;4.84;74.47;99264.97;5092278;28;20103;-67
2021/11/24 11:05:28;;;;;;;31.55;16.30;;;;;;;4.87;73.77;99265.34;5091642;28;20494;-67
2021/11/24 11:08:08;;;;;;;34.95;18.38;;;;;;;4.84;73.19;99254.94;5093163;28;20020;-67
2021/11/24 11:10:38;;;;;;;39.38;18.30;;;;;;;4.84;73.18;99252.22;5093473;28;20028;-67
2021/11/24 11:13:05;;;;;;;36.55;16.63;;;;;;;4.90;73.18;99255.84;5074491;28;20031;-68
2021/11/24 11:15:57;;;;;;;28.55;16.42;;;;;;;4.94;73.05;99250.75;5092639;28;20032;-68
2021/11/24 11:18:38;;;;;;;28.50;16.05;;;;;;;4.94;72.24;99253.47;5088167;28;20063;-68
2021/11/24 11:21:08;;;;;;;28.27;14.15;;;;;;;4.97;72.63;99251.13;5089161;28;20651;-67
2021/11/24 11:23:48;;;;;;;29.35;16.33;;;;;;;5.00;72.43;99236.22;5090475;28;20034;-66
2021/11/24 11:26:24;;;;;;;27.30;15.18;;;;;;;4.99;71.90;99229.97;5091052;28;20475;-68